ENML/MOL METAR and TAF weather

Enter ICAO airport designator
Station Type Date Time Source
ENML METAR 2022/06/28 09:20 UTC NOAA

ENML 280920Z 22004KT 9999 -SHRA FEW004 BKN033 14/12 Q1017


Station Type Date Time Source
ENML Decoded METAR 2022/06/28 09:20 UTC NOAA

Molde / Aro, Norway (ENML) 62-45N 007-16E 3M
Jun 28, 2022 - 05:20 AM EDT / 2022.06.28 0920 UTC
Wind: from the SW (220 degrees) at 5 MPH (4 KT):0
Visibility: greater than 7 mile(s):0
Sky conditions: mostly cloudy
Weather: light rain showers
Temperature: 57 F (14 C)
Dew Point: 53 F (12 C)
Relative Humidity: 87%
Pressure (altimeter): 30.03 in. Hg (1017 hPa)
ob: ENML 280920Z 22004KT 9999 -SHRA FEW004 BKN033 14/12 Q1017
cycle: 9

Station Type Date Time Source
ENML TAF UTC NOAA

Error!

Example: see airport list